Time;durP1;ratioP1;P1;durP2;ratioP2;P2;SDS_P1;SDS_P2;PMS_P1;PMS_P2;Temp;Humidity;BMP_temperature;BMP_pressure;BME280_temperature;BME280_humidity;BME280_pressure;Samples;Min_cycle;Max_cycle;Signal;HPM_P1;HPM_P2
2021/04/28 00:02:40;;;;;;;59.25;53.08;;;;;;;12.09;99.76;99907.72;5092889;28;20051;-81
2021/04/28 00:05:45;;;;;;;58.60;52.30;;;;;;;12.03;99.92;99903.78;5093537;28;20047;-79
2021/04/28 00:08:50;;;;;;;58.92;52.83;;;;;;;12.07;100.00;99904.34;5090761;28;20043;-80
2021/04/28 00:11:54;;;;;;;58.20;52.22;;;;;;;12.11;100.00;99905.69;5090909;28;20475;-78
2021/04/28 00:14:59;;;;;;;60.38;54.08;;;;;;;12.08;100.00;99893.41;5091902;28;20044;-78
2021/04/28 00:18:04;;;;;;;59.53;53.42;;;;;;;12.11;100.00;99893.09;5092004;28;20498;-82
2021/04/28 00:21:09;;;;;;;59.03;52.83;;;;;;;12.11;100.00;99885.03;5091034;28;20048;-82
2021/04/28 00:24:13;;;;;;;57.47;51.58;;;;;;;12.08;100.00;99882.63;5091867;28;20040;-80
2021/04/28 00:27:17;;;;;;;63.33;54.78;;;;;;;12.09;99.98;99886.19;5091942;28;20040;-82
2021/04/28 00:30:23;;;;;;;55.72;50.00;;;;;;;12.11;100.00;99887.72;5091637;28;20047;-80
2021/04/28 00:33:27;;;;;;;55.63;49.72;;;;;;;12.03;100.00;99876.03;5089939;28;20036;-81
2021/04/28 00:36:45;;;;;;;53.85;48.13;;;;;;;11.98;100.00;99873.81;5092893;28;20044;-83
2021/04/28 00:39:49;;;;;;;54.22;48.50;;;;;;;11.97;100.00;99866.75;5090732;28;20040;-82
2021/04/28 00:42:54;;;;;;;51.22;46.05;;;;;;;12.04;100.00;99875.03;5091494;28;20036;-81
2021/04/28 00:46:00;;;;;;;54.50;47.47;;;;;;;12.03;100.00;99868.81;5091986;28;20044;-79
2021/04/28 00:49:04;;;;;;;52.65;47.42;;;;;;;12.04;100.00;99869.66;5088071;28;20479;-82
2021/04/28 00:52:09;;;;;;;52.85;47.42;;;;;;;12.06;100.00;99871.19;5091860;28;20040;-83
2021/04/28 00:55:14;;;;;;;53.38;47.45;;;;;;;12.06;100.00;99868.50;5090315;28;20487;-84
2021/04/28 00:58:21;;;;;;;54.00;48.30;;;;;;;12.01;100.00;99869.97;5090956;28;20032;-85
2021/04/28 01:01:26;;;;;;;54.00;48.40;;;;;;;12.03;100.00;99870.66;5091910;28;20041;-83
2021/04/28 01:04:30;;;;;;;53.85;48.55;;;;;;;12.05;100.00;99860.56;5092669;28;20036;-85
2021/04/28 01:07:36;;;;;;;53.13;47.75;;;;;;;12.07;100.00;99870.19;5096422;28;20036;-83
2021/04/28 01:10:43;;;;;;;53.38;47.83;;;;;;;12.07;100.00;99861.28;5084427;28;20036;-83
2021/04/28 01:13:48;;;;;;;54.97;49.15;;;;;;;12.01;100.00;99862.75;5094145;28;20040;-85
2021/04/28 01:16:52;;;;;;;53.15;47.78;;;;;;;12.07;100.00;99855.91;5094858;28;20048;-84
2021/04/28 01:19:57;;;;;;;52.65;47.35;;;;;;;11.98;100.00;99843.38;5094591;28;20033;-85
2021/04/28 01:23:02;;;;;;;55.70;50.20;;;;;;;12.01;100.00;99838.53;5095094;28;20047;-85
2021/04/28 01:26:10;;;;;;;56.08;50.42;;;;;;;11.92;100.00;99842.19;5070506;28;20475;-85
2021/04/28 01:29:18;;;;;;;59.88;52.40;;;;;;;11.87;100.00;99844.47;5094810;28;20044;-85
2021/04/28 01:32:23;;;;;;;59.13;52.78;;;;;;;11.87;100.00;99846.31;5095831;28;20470;-85
2021/04/28 01:35:41;;;;;;;57.42;51.20;;;;;;;11.78;100.00;99834.63;5094451;28;20048;-84
2021/04/28 01:38:50;;;;;;;60.03;53.53;;;;;;;11.79;100.00;99835.50;5093382;28;20048;-85
2021/04/28 01:41:57;;;;;;;59.05;50.90;;;;;;;11.78;100.00;99840.00;5094161;28;20032;-81
2021/04/28 01:45:03;;;;;;;56.67;50.50;;;;;;;11.81;100.00;99838.88;5094662;28;20479;-81
2021/04/28 01:48:11;;;;;;;56.17;50.08;;;;;;;11.84;100.00;99836.72;5051824;28;20503;-85
2021/04/28 01:51:07;;;;;;;54.53;48.47;;;;;;;11.88;100.00;99834.53;5060210;28;20528;-82
2021/04/28 01:54:16;;;;;;;56.53;50.60;;;;;;;11.86;100.00;99834.72;5021748;28;20053;-82
2021/04/28 01:57:25;;;;;;;55.63;49.85;;;;;;;11.84;100.00;99835.88;5047256;28;20037;-84
2021/04/28 02:00:49;;;;;;;57.17;51.28;;;;;;;11.84;100.00;99831.34;5051319;28;20037;-85
2021/04/28 02:04:10;;;;;;;59.25;53.00;;;;;;;11.81;100.00;99831.66;5051210;28;20041;-83
2021/04/28 02:07:19;;;;;;;57.55;51.60;;;;;;;11.82;100.00;99830.66;5052212;28;20060;-82
2021/04/28 02:10:44;;;;;;;60.15;53.45;;;;;;;11.77;100.00;99827.59;5053082;28;20049;-85
2021/04/28 02:13:52;;;;;;;60.25;52.53;;;;;;;11.83;100.00;99832.31;5051200;28;20503;-83
2021/04/28 02:17:21;;;;;;;57.17;50.50;;;;;;;11.89;100.00;99834.41;5051849;28;20041;-85
2021/04/28 02:20:28;;;;;;;61.63;52.97;;;;;;;11.82;100.00;99827.97;5050580;28;20057;-85
2021/04/28 02:23:49;;;;;;;61.33;52.42;;;;;;;11.85;100.00;99824.94;5050357;28;20045;-83
2021/04/28 02:26:59;;;;;;;61.35;54.72;;;;;;;11.87;100.00;99832.88;5104743;28;20036;-85
2021/04/28 02:30:08;;;;;;;64.18;53.80;;;;;;;11.85;100.00;99821.44;5094534;28;20040;-85
2021/04/28 02:32:54;;;;;;;66.30;53.95;;;;;;;11.85;100.00;99824.13;5099385;28;20036;-82
2021/04/28 02:36:18;;;;;;;65.73;55.57;;;;;;;11.82;100.00;99822.59;5093968;28;20036;-81
2021/04/28 02:39:44;;;;;;;66.50;54.30;;;;;;;11.82;100.00;99813.66;5077644;28;20048;-85
2021/04/28 02:42:49;;;;;;;63.35;54.53;;;;;;;11.86;100.00;99815.03;5093955;28;20044;-85
2021/04/28 02:45:55;;;;;;;65.00;55.08;;;;;;;11.89;100.00;99812.91;5094340;28;20044;-83
2021/04/28 02:49:01;;;;;;;65.15;56.28;;;;;;;11.90;100.00;99811.88;5081538;28;20040;-84
2021/04/28 02:52:12;;;;;;;66.65;55.35;;;;;;;11.94;100.00;99812.41;5091793;28;20403;-85
2021/04/28 02:55:24;;;;;;;69.47;58.20;;;;;;;11.94;100.00;99813.28;5094507;28;20398;-83
2021/04/28 02:58:36;;;;;;;71.22;57.35;;;;;;;11.94;100.00;99815.97;5092008;28;20048;-82
2021/04/28 03:01:49;;;;;;;62.53;55.58;;;;;;;11.96;100.00;99816.66;5093621;28;20036;-83
2021/04/28 03:04:55;;;;;;;65.60;56.28;;;;;;;11.96;100.00;99815.78;5091972;28;20036;-83
2021/04/28 03:08:01;;;;;;;63.67;53.45;;;;;;;11.91;100.00;99812.72;5092742;28;20048;-85
2021/04/28 03:11:06;;;;;;;64.18;54.70;;;;;;;11.95;100.00;99817.63;5094411;28;20421;-82
2021/04/28 03:14:12;;;;;;;61.97;55.10;;;;;;;11.96;100.00;99811.25;5091169;28;20040;-81
2021/04/28 03:17:16;;;;;;;65.45;56.97;;;;;;;11.98;100.00;99814.63;5093037;28;20044;-85
2021/04/28 03:20:25;;;;;;;62.08;55.38;;;;;;;12.01;100.00;99819.72;5081258;28;20044;-85
2021/04/28 03:23:30;;;;;;;62.60;56.03;;;;;;;11.91;100.00;99818.97;5091203;28;20040;-84
2021/04/28 03:26:36;;;;;;;65.43;56.05;;;;;;;11.88;100.00;99815.72;5091856;28;20040;-84
2021/04/28 03:29:41;;;;;;;64.10;57.25;;;;;;;11.88;100.00;99813.03;5092723;28;20048;-85
2021/04/28 03:32:46;;;;;;;62.78;55.70;;;;;;;11.86;100.00;99821.28;5093904;28;20028;-83
2021/04/28 03:36:16;;;;;;;66.53;59.08;;;;;;;11.79;100.00;99830.09;5092416;28;20040;-86
2021/04/28 03:39:24;;;;;;;67.78;58.45;;;;;;;11.84;100.00;99822.44;5093186;28;20048;-85
2021/04/28 03:42:29;;;;;;;64.65;57.67;;;;;;;11.85;100.00;99822.25;5091429;28;20044;-85
2021/04/28 03:45:34;;;;;;;64.40;56.40;;;;;;;11.87;100.00;99822.13;5091373;28;20044;-84
2021/04/28 03:48:40;;;;;;;62.33;55.67;;;;;;;11.91;100.00;99824.34;5063681;28;20044;-85
2021/04/28 03:51:46;;;;;;;63.28;56.15;;;;;;;11.89;100.00;99837.09;5092483;28;20040;-83
2021/04/28 03:54:54;;;;;;;64.03;56.25;;;;;;;11.82;100.00;99825.28;5091754;28;20475;-82
2021/04/28 03:57:58;;;;;;;63.92;57.03;;;;;;;11.82;100.00;99827.97;5090667;28;20044;-85
2021/04/28 04:01:03;;;;;;;65.78;56.33;;;;;;;11.84;100.00;99828.66;5091978;28;20402;-83
2021/04/28 04:04:12;;;;;;;64.78;57.67;;;;;;;11.87;100.00;99828.34;5090536;28;20032;-84
2021/04/28 04:07:35;;;;;;;67.32;59.85;;;;;;;11.82;100.00;99835.19;5091601;28;20037;-83
2021/04/28 04:10:44;;;;;;;68.25;59.38;;;;;;;11.83;100.00;99834.16;5092702;28;20052;-85
2021/04/28 04:13:49;;;;;;;68.57;58.55;;;;;;;11.78;100.00;99840.00;5089796;28;20479;-85
2021/04/28 04:16:53;;;;;;;63.55;56.67;;;;;;;11.80;100.00;99835.31;5087595;28;20040;-86
2021/04/28 04:19:58;;;;;;;62.40;55.58;;;;;;;11.83;100.00;99837.72;5091092;28;20391;-84
2021/04/28 04:23:24;;;;;;;63.88;55.55;;;;;;;11.82;100.00;99840.56;5091662;28;20048;-79
2021/04/28 04:26:40;;;;;;;62.83;56.22;;;;;;;11.86;100.00;99837.41;5091191;28;20036;-83
2021/04/28 04:30:05;;;;;;;64.25;57.30;;;;;;;11.88;100.00;99829.16;5091602;28;20048;-81
2021/04/28 04:33:12;;;;;;;67.03;58.60;;;;;;;11.89;100.00;99831.72;5090570;28;20364;-85
2021/04/28 04:36:35;;;;;;;62.63;55.10;;;;;;;11.94;100.00;99845.53;5091212;28;20040;-81
2021/04/28 04:39:58;;;;;;;59.92;53.55;;;;;;;11.96;100.00;99845.38;5092876;28;20502;-86
2021/04/28 04:43:15;;;;;;;63.03;56.20;;;;;;;11.87;100.00;99846.31;5093360;28;20036;-85
2021/04/28 04:46:48;;;;;;;61.45;55.03;;;;;;;11.89;100.00;99838.94;5086789;28;20032;-84
2021/04/28 04:49:52;;;;;;;62.00;55.53;;;;;;;11.86;100.00;99845.47;5090615;28;20040;-85
2021/04/28 04:52:57;;;;;;;59.83;53.53;;;;;;;11.87;100.00;99844.47;5091200;28;20032;-85
2021/04/28 04:56:02;;;;;;;60.25;53.95;;;;;;;11.87;100.00;99849.88;5091842;28;20040;-85
2021/04/28 04:59:07;;;;;;;65.18;56.00;;;;;;;11.86;100.00;99856.22;5092429;28;20483;-86
2021/04/28 05:02:11;;;;;;;63.63;56.83;;;;;;;11.87;100.00;99851.69;5090740;28;20052;-85
2021/04/28 05:05:16;;;;;;;69.22;61.55;;;;;;;11.91;100.00;99853.91;5091069;28;20044;-85
2021/04/28 05:08:20;;;;;;;104.97;91.75;;;;;;;11.91;100.00;99853.91;5088299;28;20032;-84
2021/04/28 05:11:25;;;;;;;69.50;60.00;;;;;;;11.94;100.00;99858.16;5092323;28;20495;-85
2021/04/28 05:14:30;;;;;;;67.22;57.20;;;;;;;11.89;100.00;99855.94;5089645;28;20040;-85
2021/04/28 05:17:34;;;;;;;64.63;57.67;;;;;;;11.92;100.00;99854.78;5089354;28;20032;-84
2021/04/28 05:20:39;;;;;;;63.00;56.42;;;;;;;11.98;100.00;99852.28;5093298;28;20040;-83
2021/04/28 05:23:43;;;;;;;62.42;56.05;;;;;;;12.05;100.00;99858.72;5091116;28;20391;-85
2021/04/28 05:27:07;;;;;;;;;;;;;;;12.01;100.00;99864.59;5091980;28;20359;-85
2021/04/28 05:30:13;;;;;;;61.05;54.30;;;;;;;12.10;100.00;99855.56;5089261;28;19916;-82
2021/04/28 05:33:17;;;;;;;60.95;54.42;;;;;;;12.16;100.00;99855.81;5092494;28;20048;-83
2021/04/28 05:36:22;;;;;;;58.67;52.72;;;;;;;12.12;100.00;99865.19;5089616;28;20471;-82
2021/04/28 05:39:26;;;;;;;61.58;54.90;;;;;;;12.13;99.82;99860.66;5095027;28;20040;-82
2021/04/28 05:42:31;;;;;;;62.38;55.75;;;;;;;12.10;99.89;99859.13;5092131;28;20415;-86
2021/04/28 05:45:44;;;;;;;61.65;55.15;;;;;;;12.15;99.86;99855.94;5090563;28;20070;-84
2021/04/28 05:48:48;;;;;;;58.60;52.50;;;;;;;12.21;99.73;99853.50;5091427;28;20110;-86
2021/04/28 05:51:53;;;;;;;57.42;51.47;;;;;;;12.23;99.47;99856.00;5091655;28;20406;-80
2021/04/28 05:54:57;;;;;;;53.10;47.35;;;;;;;12.21;99.36;99853.50;5094296;28;20497;-80
2021/04/28 05:58:02;;;;;;;54.08;48.30;;;;;;;12.23;99.20;99858.72;5075699;28;20055;-80
2021/04/28 06:01:07;;;;;;;53.78;48.13;;;;;;;12.27;98.70;99860.09;5080718;28;20051;-85
2021/04/28 06:04:11;;;;;;;54.13;48.42;;;;;;;12.34;98.88;99861.16;5095873;28;20074;-80
2021/04/28 06:07:15;;;;;;;54.67;49.00;;;;;;;12.37;98.75;99866.19;5096409;28;20051;-82
2021/04/28 06:10:21;;;;;;;55.10;48.95;;;;;;;12.32;98.37;99863.13;5093651;28;20048;-82
2021/04/28 06:13:26;;;;;;;57.05;50.80;;;;;;;12.28;98.19;99854.56;5085671;28;20059;-84
2021/04/28 06:16:31;;;;;;;62.60;50.50;;;;;;;12.25;98.18;99856.69;5094583;28;20414;-83
2021/04/28 06:19:36;;;;;;;59.30;51.03;;;;;;;12.30;98.66;99855.22;5089227;28;20044;-79
2021/04/28 06:22:42;;;;;;;59.05;51.10;;;;;;;12.34;98.43;99853.91;5076243;28;20056;-84
2021/04/28 06:25:48;;;;;;;61.53;52.83;;;;;;;12.32;98.11;99858.59;5085193;28;20098;-80
2021/04/28 06:28:54;;;;;;;57.97;50.58;;;;;;;12.32;98.29;99846.97;5096416;28;20047;-80
2021/04/28 06:31:59;;;;;;;54.30;48.53;;;;;;;12.25;98.00;99852.16;5096058;28;20055;-81
2021/04/28 06:35:15;;;;;;;47.65;42.78;;;;;;;12.35;97.84;99854.75;5094506;28;20042;-77
2021/04/28 06:38:20;;;;;;;46.22;41.28;;;;;;;12.40;97.24;99861.34;5095690;28;20063;-82
2021/04/28 06:41:24;;;;;;;43.10;38.72;;;;;;;12.42;96.84;99863.88;5082002;28;20052;-81
2021/04/28 06:44:28;;;;;;;41.88;37.47;;;;;;;12.48;96.09;99865.94;5089447;28;20521;-80
2021/04/28 06:47:33;;;;;;;43.78;36.92;;;;;;;12.50;95.44;99861.25;5082965;28;20528;-81
2021/04/28 06:50:37;;;;;;;40.33;36.00;;;;;;;12.48;94.93;99865.09;5075028;28;20055;-80
2021/04/28 06:53:43;;;;;;;37.17;33.20;;;;;;;12.54;95.09;99864.47;5092472;28;20055;-80
2021/04/28 06:56:48;;;;;;;38.38;34.55;;;;;;;12.68;93.83;99861.19;5096130;28;20051;-79
2021/04/28 06:59:52;;;;;;;44.15;34.70;;;;;;;12.83;93.62;99854.19;5089735;28;20059;-80
2021/04/28 07:02:57;;;;;;;37.25;33.60;;;;;;;13.08;92.32;99855.19;5090962;28;20398;-79
2021/04/28 07:06:01;;;;;;;37.08;32.85;;;;;;;13.31;91.45;99843.63;5092405;28;20051;-78
2021/04/28 07:09:06;;;;;;;34.85;30.80;;;;;;;13.58;89.42;99851.44;5087027;28;20501;-80
2021/04/28 07:12:10;;;;;;;32.05;28.77;;;;;;;13.76;87.98;99850.44;5088086;28;20568;-78
2021/04/28 07:15:15;;;;;;;31.98;28.70;;;;;;;13.95;85.94;99850.13;5075208;28;20505;-80
2021/04/28 07:18:19;;;;;;;32.83;29.17;;;;;;;14.02;85.68;99860.06;5106422;28;20094;-79
2021/04/28 07:21:24;;;;;;;30.92;27.92;;;;;;;14.08;85.13;99855.84;5094812;28;20051;-79
2021/04/28 07:24:28;;;;;;;30.52;27.48;;;;;;;14.41;84.65;99859.41;5084812;28;20047;-79
2021/04/28 07:27:32;;;;;;;30.98;26.60;;;;;;;14.91;83.25;99863.50;5087296;28;20039;-78
2021/04/28 07:30:37;;;;;;;25.42;22.75;;;;;;;14.94;81.02;99867.69;5093273;28;20051;-78
2021/04/28 07:33:41;;;;;;;29.38;26.10;;;;;;;14.95;80.65;99869.41;5077487;28;20047;-81
2021/04/28 07:36:46;;;;;;;29.10;26.30;;;;;;;15.19;79.53;99873.84;5090796;28;20047;-79
2021/04/28 07:39:51;;;;;;;29.88;26.98;;;;;;;15.25;78.84;99871.31;5092047;28;20059;-78
2021/04/28 07:42:55;;;;;;;29.50;26.70;;;;;;;15.34;77.38;99878.34;5083712;28;20055;-80
2021/04/28 07:46:00;;;;;;;29.58;26.55;;;;;;;15.15;78.10;99867.97;5064891;28;20044;-80
2021/04/28 07:49:05;;;;;;;28.63;25.63;;;;;;;14.87;79.19;99870.28;5094378;28;20093;-81
2021/04/28 07:52:09;;;;;;;27.95;25.08;;;;;;;14.58;80.51;99869.16;5094359;28;20039;-80
2021/04/28 07:55:14;;;;;;;27.98;24.60;;;;;;;14.67;81.20;99866.28;5087446;28;20043;-80
2021/04/28 07:58:19;;;;;;;26.30;23.63;;;;;;;14.72;80.37;99873.84;5073905;28;20495;-79
2021/04/28 08:01:24;;;;;;;26.00;23.50;;;;;;;14.75;80.72;99874.38;5073405;28;20056;-80
2021/04/28 08:04:28;;;;;;;25.50;22.77;;;;;;;14.52;80.13;99881.50;5081419;28;20513;-79
2021/04/28 08:07:33;;;;;;;22.63;20.35;;;;;;;14.56;79.86;99882.84;5093840;28;20051;-80
2021/04/28 08:10:38;;;;;;;22.77;20.45;;;;;;;14.55;79.31;99874.91;5082772;28;20051;-80
2021/04/28 08:13:42;;;;;;;22.85;20.50;;;;;;;14.74;78.04;99874.53;5093428;28;20059;-79
2021/04/28 08:16:47;;;;;;;23.70;20.25;;;;;;;15.13;77.60;99878.13;5087000;28;20052;-78
2021/04/28 08:19:52;;;;;;;20.70;18.73;;;;;;;15.40;76.08;99884.94;5081240;28;20055;-80
2021/04/28 08:22:57;;;;;;;19.65;16.77;;;;;;;15.61;73.51;99883.31;5086278;28;20060;-84
2021/04/28 08:26:02;;;;;;;28.55;15.57;;;;;;;15.83;73.06;99884.34;5083797;28;20236;-82
2021/04/28 08:29:06;;;;;;;16.67;14.73;;;;;;;16.05;73.19;99882.66;5089664;28;20059;-82
2021/04/28 08:32:13;;;;;;;15.80;14.18;;;;;;;15.98;70.86;99890.66;5093838;28;20051;-80
2021/04/28 08:35:19;;;;;;;13.88;12.23;;;;;;;16.02;69.60;99888.47;5093748;28;20547;-80
2021/04/28 08:38:24;;;;;;;14.90;11.90;;;;;;;16.03;69.29;99890.97;5093878;28;20501;-80
2021/04/28 08:41:28;;;;;;;16.25;11.90;;;;;;;15.94;69.37;99886.66;5093361;28;20075;-80
2021/04/28 08:44:35;;;;;;;13.70;11.98;;;;;;;16.17;69.37;99883.94;5093569;28;20051;-82
2021/04/28 08:47:40;;;;;;;13.15;11.63;;;;;;;16.36;67.63;99879.88;5093858;28;20490;-81
2021/04/28 08:50:48;;;;;;;14.90;12.32;;;;;;;16.64;66.92;99879.09;5093082;28;20062;-80
2021/04/28 08:53:53;;;;;;;13.98;11.95;;;;;;;17.01;65.29;99882.78;5093601;28;20063;-82
2021/04/28 08:56:59;;;;;;;13.15;11.73;;;;;;;17.22;65.14;99883.72;5073005;28;20403;-81
2021/04/28 09:00:07;;;;;;;12.98;10.98;;;;;;;17.21;63.76;99878.44;5060832;28;20071;-80
2021/04/28 09:03:12;;;;;;;21.17;14.80;;;;;;;17.60;63.50;99880.88;5073088;28;20518;-79
2021/04/28 09:06:32;;;;;;;15.95;13.55;;;;;;;17.77;62.08;99875.03;5049062;28;20503;-81
2021/04/28 09:09:36;;;;;;;15.23;13.63;;;;;;;17.52;62.93;99877.25;5064021;28;20071;-80
2021/04/28 09:12:50;;;;;;;16.95;15.15;;;;;;;18.21;61.37;99885.69;5069531;28;20490;-81
2021/04/28 09:15:54;;;;;;;15.63;12.55;;;;;;;18.25;60.10;99872.53;5069383;28;20051;-81
2021/04/28 09:18:58;;;;;;;15.73;12.75;;;;;;;18.34;59.88;99876.81;5069218;28;20063;-81
2021/04/28 09:22:22;;;;;;;13.63;12.15;;;;;;;18.54;59.43;99872.44;5083911;28;20055;-81
2021/04/28 09:26:17;;;;;;;12.63;11.40;;;;;;;18.15;58.20;99870.16;5040354;28;20443;-81
2021/04/28 09:30:12;;;;;;;17.33;13.63;;;;;;;18.01;59.74;99871.06;5075384;28;20513;-89
2021/04/28 09:33:17;;;;;;;15.70;13.98;;;;;;;18.28;60.76;99870.28;5064467;28;20051;-80
2021/04/28 09:36:37;;;;;;;18.40;15.50;;;;;;;18.50;59.10;99873.84;5064332;28;20399;-81
2021/04/28 09:39:50;;;;;;;16.33;14.57;;;;;;;17.97;58.82;99875.22;5072864;28;20043;-80
2021/04/28 09:42:58;;;;;;;16.67;15.02;;;;;;;17.84;59.78;99873.22;5084348;28;20042;-81
2021/04/28 09:46:03;;;;;;;17.75;15.82;;;;;;;18.00;59.94;99869.38;5072461;28;20047;-81
2021/04/28 09:49:09;;;;;;;18.85;15.80;;;;;;;17.71;61.08;99870.34;5072691;28;20090;-81
2021/04/28 09:52:16;;;;;;;17.35;15.52;;;;;;;17.84;59.87;99875.94;5072222;28;20399;-81
2021/04/28 09:55:21;;;;;;;17.55;15.68;;;;;;;17.81;59.94;99870.03;5079135;28;22105;-81
2021/04/28 09:58:48;;;;;;;18.27;16.38;;;;;;;17.66;59.35;99869.22;5072073;28;20079;-81
2021/04/28 10:01:58;;;;;;;18.70;16.70;;;;;;;17.86;59.41;99873.00;5056625;28;20407;-81
2021/04/28 10:05:29;;;;;;;18.55;16.58;;;;;;;18.07;59.23;99881.19;5052741;28;20067;-81
2021/04/28 10:08:34;;;;;;;17.17;14.95;;;;;;;18.43;58.29;99871.03;5055333;28;20041;-82
2021/04/28 10:11:39;;;;;;;18.10;16.30;;;;;;;18.32;57.36;99874.28;5080761;28;20059;-81
2021/04/28 10:38:20;;;;;;;12.15;10.90;;;;;;;18.26;57.37;99853.34;5092441;28;20054;-82
2021/04/28 10:41:40;;;;;;;13.93;11.00;;;;;;;18.27;57.15;99856.91;5071808;28;20047;-80
2021/04/28 10:44:45;;;;;;;12.68;11.38;;;;;;;18.49;57.45;99853.97;5072516;28;20475;-80
2021/04/28 10:47:52;;;;;;;12.65;11.27;;;;;;;18.62;56.06;99856.78;5063447;28;20067;-79
2021/04/28 10:50:56;;;;;;;11.32;10.23;;;;;;;18.81;55.94;99847.91;5063027;28;20052;-79
2021/04/28 10:54:24;;;;;;;13.20;11.68;;;;;;;19.07;56.18;99849.09;5062668;28;20055;-79
2021/04/28 10:57:38;;;;;;;13.40;12.00;;;;;;;18.58;56.25;99847.34;5049326;28;20052;-79
2021/04/28 11:00:43;;;;;;;18.08;11.85;;;;;;;18.49;58.08;99856.69;5063073;28;20055;-80
2021/04/28 11:03:49;;;;;;;14.38;12.52;;;;;;;18.05;57.09;99845.19;5062495;28;20071;-77
2021/04/28 11:06:54;;;;;;;13.13;11.82;;;;;;;17.99;57.79;99848.72;5067430;28;20494;-80
2021/04/28 11:10:44;;;;;;;16.42;10.73;;;;;;;18.17;57.30;99843.66;5071339;28;20070;-81
2021/04/28 11:14:08;;;;;;;14.82;11.75;;;;;;;18.56;56.98;99848.59;5081832;28;20067;-81
2021/04/28 11:17:16;;;;;;;14.68;11.10;;;;;;;18.38;56.72;99840.91;5079858;28;20513;-78
2021/04/28 11:20:22;;;;;;;11.55;10.45;;;;;;;18.35;57.03;99844.00;5062543;28;20051;-82
2021/04/28 11:23:26;;;;;;;13.52;12.20;;;;;;;18.07;57.06;99849.41;5071594;28;20506;-82
2021/04/28 11:26:34;;;;;;;13.95;12.15;;;;;;;18.09;56.89;99857.38;5074059;28;20051;-81
2021/04/28 11:29:55;;;;;;;15.43;12.40;;;;;;;18.19;56.90;99850.56;5074895;28;20047;-81
2021/04/28 11:33:17;;;;;;;11.73;10.63;;;;;;;18.55;57.17;99845.03;5082131;28;20063;-82
2021/04/28 11:36:21;;;;;;;14.48;11.48;;;;;;;18.42;56.21;99847.59;5094750;28;20059;-82
2021/04/28 11:39:42;;;;;;;12.95;11.02;;;;;;;18.36;56.33;99848.41;5094666;28;20051;-82
2021/04/28 11:42:47;;;;;;;12.80;11.50;;;;;;;18.31;56.49;99842.72;5094572;28;20055;-81
2021/04/28 11:45:53;;;;;;;11.65;10.55;;;;;;;18.34;56.54;99838.78;5094857;28;20047;-78
2021/04/28 11:49:02;;;;;;;13.45;10.10;;;;;;;18.43;56.75;99843.88;5093127;28;20039;-79
2021/04/28 11:52:07;;;;;;;12.70;10.75;;;;;;;18.35;57.77;99838.56;5072245;28;20051;-81
2021/04/28 11:55:12;;;;;;;14.75;9.88;;;;;;;18.62;55.74;99847.78;5091068;28;20047;-80
2021/04/28 11:58:32;;;;;;;12.27;10.50;;;;;;;18.57;56.19;99851.09;5079868;28;20067;-80
2021/04/28 12:01:36;;;;;;;11.57;10.48;;;;;;;18.55;56.01;99846.91;5071630;28;20506;-80
2021/04/28 12:04:45;;;;;;;10.50;9.48;;;;;;;18.49;55.58;99853.97;5071788;28;20060;-80
2021/04/28 12:07:50;;;;;;;33.22;28.35;;;;;;;18.39;55.70;99848.03;5090314;28;20387;-80
2021/04/28 12:10:55;;;;;;;13.85;11.77;;;;;;;18.53;56.10;99844.41;5091333;28;20055;-80
2021/04/28 12:14:00;;;;;;;10.50;9.52;;;;;;;18.71;55.27;99846.63;5074957;28;20048;-80
2021/04/28 12:17:05;;;;;;;12.48;10.13;;;;;;;18.60;55.19;99839.00;5069768;28;20051;-80
2021/04/28 12:20:13;;;;;;;11.98;9.52;;;;;;;18.52;55.67;99839.13;5069719;28;20047;-80
2021/04/28 12:23:22;;;;;;;10.00;9.00;;;;;;;18.65;55.00;99831.09;5070139;28;20048;-80
2021/04/28 12:26:27;;;;;;;10.93;9.55;;;;;;;18.83;54.81;99836.84;5069913;28;20060;-80
2021/04/28 12:29:35;;;;;;;11.55;9.80;;;;;;;18.94;54.89;99827.28;5069692;28;20067;-80
2021/04/28 12:32:45;;;;;;;12.93;9.73;;;;;;;19.03;55.07;99828.81;5070503;28;20553;-79
2021/04/28 12:35:50;;;;;;;11.57;10.43;;;;;;;18.94;54.57;99819.94;5071025;28;20064;-79
2021/04/28 12:38:58;;;;;;;11.15;10.15;;;;;;;18.74;54.87;99819.00;5072828;28;20063;-78
2021/04/28 12:42:04;;;;;;;11.10;9.93;;;;;;;18.94;54.64;99811.78;5073899;28;20063;-78
2021/04/28 12:45:13;;;;;;;10.40;9.38;;;;;;;18.90;55.20;99820.56;5073377;28;20383;-79
2021/04/28 12:48:20;;;;;;;11.30;10.20;;;;;;;18.73;55.67;99817.34;5073972;28;20456;-79
2021/04/28 12:51:26;;;;;;;11.27;9.77;;;;;;;18.66;55.91;99816.47;5073859;28;20375;-78
2021/04/28 12:54:32;;;;;;;11.35;10.07;;;;;;;18.74;55.74;99819.00;5073337;28;20078;-79
2021/04/28 12:57:36;;;;;;;13.70;10.38;;;;;;;18.75;54.21;99816.09;5075594;28;20411;-80
2021/04/28 13:00:42;;;;;;;10.10;9.10;;;;;;;19.09;54.31;99812.50;5096081;28;20523;-80
2021/04/28 13:03:47;;;;;;;10.82;9.27;;;;;;;19.11;54.26;99815.03;5096754;28;20051;-80
2021/04/28 13:07:11;;;;;;;11.73;9.07;;;;;;;18.99;54.51;99808.47;5085056;28;20051;-81
2021/04/28 13:10:17;;;;;;;9.93;8.75;;;;;;;19.29;53.16;99812.59;5096077;28;20063;-81
2021/04/28 13:13:32;;;;;;;10.80;8.13;;;;;;;19.44;53.39;99807.84;5097015;28;20039;-81
2021/04/28 13:16:55;;;;;;;9.15;8.25;;;;;;;19.64;52.11;99811.47;5097178;28;20502;-80
2021/04/28 13:20:18;;;;;;;10.63;8.52;;;;;;;19.69;52.60;99808.97;5076957;28;20044;-81
2021/04/28 13:23:29;;;;;;;9.90;8.60;;;;;;;19.21;53.67;99810.88;5076626;28;20044;-80
2021/04/28 13:26:36;;;;;;;11.43;9.35;;;;;;;19.20;52.90;99811.09;5077225;28;20453;-81
2021/04/28 13:29:47;;;;;;;11.05;8.60;;;;;;;19.33;53.21;99811.16;5076443;28;20413;-79
2021/04/28 13:32:55;;;;;;;13.60;8.70;;;;;;;19.04;53.50;99812.25;5076091;28;20517;-79
2021/04/28 13:35:59;;;;;;;10.55;8.70;;;;;;;18.83;53.52;99807.78;5075652;28;20048;-79
2021/04/28 13:39:11;;;;;;;13.50;9.40;;;;;;;18.73;54.58;99815.47;5083509;28;20066;-80
2021/04/28 13:42:16;;;;;;;19.73;16.60;;;;;;;18.66;54.81;99811.03;5097010;28;20059;-80
2021/04/28 13:45:21;;;;;;;29.35;22.83;;;;;;;18.66;54.81;99802.88;5096760;28;20047;-80
2021/04/28 13:48:26;;;;;;;11.25;10.05;;;;;;;18.66;54.71;99805.59;5095034;28;20494;-80
2021/04/28 13:51:33;;;;;;;10.95;9.02;;;;;;;18.76;54.79;99801.44;5096787;28;20047;-80
2021/04/28 13:54:37;;;;;;;11.02;8.55;;;;;;;18.91;55.37;99800.50;5082991;28;20067;-81
2021/04/28 13:57:42;;;;;;;10.60;7.72;;;;;;;18.93;55.06;99792.97;5076257;28;20051;-79
2021/04/28 14:00:47;;;;;;;12.60;9.20;;;;;;;18.95;55.30;99788.16;5076324;28;20060;-79
2021/04/28 14:03:52;;;;;;;11.75;9.38;;;;;;;19.21;54.97;99789.09;5076182;28;20063;-79
2021/04/28 14:06:56;;;;;;;13.15;9.90;;;;;;;19.13;54.46;99777.56;5076438;28;20071;-80
2021/04/28 14:10:01;;;;;;;11.05;9.45;;;;;;;18.93;55.02;99771.22;5076018;28;20060;-80
2021/04/28 14:13:06;;;;;;;9.73;8.43;;;;;;;19.10;55.75;99780.69;5075001;28;20051;-80
2021/04/28 14:16:10;;;;;;;14.05;9.45;;;;;;;19.23;55.80;99783.47;5076216;28;20055;-79
2021/04/28 14:19:14;;;;;;;12.27;9.27;;;;;;;19.36;53.90;99784.38;5095028;28;20070;-80
2021/04/28 14:22:20;;;;;;;11.68;9.38;;;;;;;19.29;54.47;99790.81;5095962;28;20055;-80
2021/04/28 14:25:24;;;;;;;10.95;9.25;;;;;;;19.19;54.81;99784.91;5096196;28;20047;-80
2021/04/28 14:28:28;;;;;;;12.30;9.60;;;;;;;19.05;55.65;99791.34;5095934;28;20054;-79
2021/04/28 14:31:39;;;;;;;12.15;10.82;;;;;;;18.94;56.29;99781.88;5096560;28;20074;-81
2021/04/28 14:34:44;;;;;;;14.07;11.48;;;;;;;18.78;57.18;99783.06;5096255;28;20402;-82
2021/04/28 14:37:48;;;;;;;11.85;10.63;;;;;;;18.53;57.54;99779.16;5094906;28;20055;-82
2021/04/28 14:40:54;;;;;;;24.05;10.65;;;;;;;18.40;58.29;99772.75;5075608;28;20055;-81
2021/04/28 14:43:58;;;;;;;12.93;10.75;;;;;;;18.35;58.43;99765.19;5074591;28;20502;-82
2021/04/28 14:47:03;;;;;;;14.02;11.43;;;;;;;18.36;58.42;99782.34;5075879;28;20056;-81
2021/04/28 14:50:08;;;;;;;15.02;11.48;;;;;;;18.31;58.07;99774.78;5079013;28;20059;-81